createdAt,value
2022-08-18T00:01:10.106Z,17.01
2022-08-18T00:16:16.378Z,16.87
2022-08-18T00:31:22.084Z,16.60
2022-08-18T00:46:30.477Z,16.61
2022-08-18T01:01:36.993Z,16.42
2022-08-18T01:16:59.683Z,16.47
2022-08-18T01:32:05.526Z,16.50
2022-08-18T01:47:12.098Z,16.52
2022-08-18T02:02:24.774Z,16.57
2022-08-18T02:17:30.472Z,16.46
2022-08-18T02:32:36.660Z,16.43
2022-08-18T02:47:42.948Z,16.54
2022-08-18T03:02:51.773Z,16.34
2022-08-18T03:17:58.420Z,16.37
2022-08-18T03:33:03.897Z,16.48
2022-08-18T03:48:10.558Z,16.41
2022-08-18T04:03:15.980Z,16.47
2022-08-18T04:18:21.525Z,16.56
2022-08-18T04:33:27.290Z,16.56
2022-08-18T04:48:34.909Z,16.49
2022-08-18T05:03:50.365Z,16.70
2022-08-18T05:18:56.508Z,16.80
2022-08-18T05:34:04.350Z,16.90
2022-08-18T05:49:11.345Z,17.14
2022-08-18T06:04:24.766Z,17.15
2022-08-18T06:19:40.607Z,17.62
2022-08-18T06:35:08.518Z,17.83
2022-08-18T06:50:22.353Z,18.00
2022-08-18T07:05:30.089Z,17.84
2022-08-18T07:20:44.732Z,18.13
2022-08-18T07:35:54.819Z,18.29
2022-08-18T07:51:08.742Z,18.54
2022-08-18T08:06:22.187Z,19.53
2022-08-18T08:21:34.700Z,19.30
2022-08-18T08:36:45.134Z,19.56
2022-08-18T08:51:57.000Z,19.62
2022-08-18T09:07:15.478Z,19.95
2022-08-18T09:22:32.595Z,21.52
2022-08-18T09:38:09.437Z,22.56
2022-08-18T09:53:54.055Z,22.50
2022-08-18T10:09:26.706Z,24.21
2022-08-18T10:40:14.489Z,22.44
2022-08-18T10:55:48.562Z,22.73
2022-08-18T11:11:32.694Z,22.94
2022-08-18T11:26:21.169Z,22.75
2022-08-18T11:41:47.815Z,22.46
2022-08-18T11:56:54.698Z,22.12
2022-08-18T12:12:03.370Z,22.73
2022-08-18T12:27:21.447Z,22.55
2022-08-18T12:42:28.361Z,22.82
2022-08-18T12:57:52.596Z,23.76
2022-08-18T13:13:00.227Z,23.54
2022-08-18T13:28:06.985Z,24.44
2022-08-18T13:43:13.292Z,24.65
2022-08-18T13:58:21.298Z,24.02
2022-08-18T14:13:28.543Z,24.27
2022-08-18T14:28:35.097Z,23.94
2022-08-18T14:43:51.776Z,23.98
2022-08-18T14:59:11.610Z,23.81
2022-08-18T15:14:19.459Z,23.62
2022-08-18T15:29:27.959Z,23.20
2022-08-18T15:44:35.061Z,22.83
2022-08-18T15:59:40.652Z,22.47
2022-08-18T16:14:46.196Z,22.46
2022-08-18T16:29:51.654Z,22.35
2022-08-18T16:44:57.244Z,22.36
2022-08-18T17:00:23.598Z,22.11
2022-08-18T17:15:29.145Z,21.99
2022-08-18T17:30:43.739Z,22.04
2022-08-18T17:45:55.493Z,21.69
2022-08-18T18:01:03.953Z,21.75
2022-08-18T18:16:29.074Z,21.37
2022-08-18T18:31:35.077Z,21.27
2022-08-18T18:46:53.076Z,21.21
2022-08-18T19:02:33.962Z,21.13
2022-08-18T19:17:44.117Z,21.00
2022-08-18T19:32:53.192Z,20.84
2022-08-18T19:48:09.030Z,20.61
2022-08-18T20:03:40.204Z,20.56
2022-08-18T20:18:51.260Z,20.46
2022-08-18T20:34:14.042Z,20.40
2022-08-18T20:49:28.615Z,20.33
2022-08-18T21:04:48.586Z,20.40
2022-08-18T21:19:59.968Z,20.20
2022-08-18T21:35:22.513Z,20.12
2022-08-18T21:50:29.856Z,19.37
2022-08-18T22:05:55.896Z,19.32
2022-08-18T22:21:10.409Z,19.23
2022-08-18T22:36:22.793Z,19.24
2022-08-18T22:51:32.698Z,19.17
2022-08-18T23:06:38.200Z,18.94
2022-08-18T23:21:44.449Z,19.00
2022-08-18T23:36:57.955Z,18.89
2022-08-18T23:52:03.498Z,18.70
